Asher, Kentucky
Current Conditions -  °F | °C
As of 8:55 AM on Monday 24 Nov 2014 (Local Time) from KI35 Reporting Station
Broken Clouds Broken Clouds  
Wind Chill: 63°   Ceiling: 3700
Heat Index: 63°   Visibility: 10mi
Dew Point: 46°   Wind: 14mph
Humidity: 55%   Direction: 200°SSW
Pressure: 29.62"   Gusts: 33mph
Location:  37.04°N, 83.4°W
Report Text: KI35 241355Z AUTO 20012G29KT 140V260 10SM BKN037 BKN047 17/08 A2962 RMK AO1
Loading
Personal Weather Stations






























Interactive Weather Map New forecast layout! Learn more

10-Day Weather Forecast

Advertisements
Track Severe Weather on mobile